TimeCEST,TemperatureF,Dew PointF,Humidity,Sea Level PressureIn,VisibilityMPH,Wind Direction,Wind SpeedMPH,Gust SpeedMPH,PrecipitationIn,Events,Conditions,WindDirDegrees,DateUTC
12:20 AM,71.6,64.4,78,29.95,-9999.0,SSW,3.5,-,N/A,,Clear,200,2013-06-23 22:20:00
12:50 AM,71.6,64.4,78,29.95,-9999.0,SSW,4.6,-,N/A,,Clear,200,2013-06-23 22:50:00
1:20 AM,71.6,62.6,73,29.95,-9999.0,SSW,4.6,-,N/A,,Clear,210,2013-06-23 23:20:00
1:50 AM,73.4,59.0,61,29.95,-9999.0,SW,5.8,-,N/A,,Clear,220,2013-06-23 23:50:00
2:20 AM,71.6,59.0,64,29.95,-9999.0,SW,5.8,-,N/A,,Clear,220,2013-06-24 00:20:00
2:50 AM,69.8,60.8,73,29.95,-9999.0,WSW,8.1,-,N/A,,Clear,240,2013-06-24 00:50:00
3:20 AM,69.8,62.6,78,29.95,-9999.0,WSW,8.1,-,N/A,,Clear,240,2013-06-24 01:20:00
3:50 AM,69.8,62.6,78,29.92,-9999.0,WSW,8.1,-,N/A,,Clear,240,2013-06-24 01:50:00
4:20 AM,69.8,62.6,78,29.92,-9999.0,WSW,5.8,-,N/A,,Clear,250,2013-06-24 02:20:00
4:50 AM,69.8,64.4,83,29.92,-9999.0,SW,4.6,-,N/A,,Clear,230,2013-06-24 02:50:00
5:20 AM,69.8,62.6,78,29.92,6.2,WSW,5.8,-,N/A,,Partly Cloudy,240,2013-06-24 03:20:00
5:50 AM,69.8,64.4,83,29.92,6.2,SSW,2.3,-,N/A,,Partly Cloudy,210,2013-06-24 03:50:00
6:20 AM,71.6,64.4,78,29.92,6.2,Variable,1.2,-,N/A,,Scattered Clouds,0,2013-06-24 04:20:00
6:50 AM,73.4,64.4,73,29.92,6.2,Variable,2.3,-,N/A,,Mostly Cloudy,0,2013-06-24 04:50:00
7:20 AM,73.4,64.4,73,29.92,6.2,SSE,3.5,-,N/A,,Mostly Cloudy,150,2013-06-24 05:20:00
7:50 AM,75.2,64.4,69,29.92,6.2,SSW,3.5,-,N/A,Rain,Light Rain,200,2013-06-24 05:50:00
8:20 AM,73.4,62.6,69,29.92,6.2,West,9.2,-,N/A,,Scattered Clouds,280,2013-06-24 06:20:00
8:50 AM,75.2,60.8,61,29.92,6.2,West,10.4,-,N/A,,Scattered Clouds,280,2013-06-24 06:50:00
9:20 AM,75.2,60.8,61,29.92,6.2,WSW,11.5,-,N/A,,Scattered Clouds,250,2013-06-24 07:20:00
9:50 AM,-9999,-9999,N/A,-9999,6.2,West,11.5,-,N/A,,Partly Cloudy,260,2013-06-24 07:50:00
10:20 AM,77.0,59.0,54,29.95,6.2,WSW,8.1,-,N/A,,Scattered Clouds,250,2013-06-24 08:20:00
10:50 AM,77.0,60.8,57,29.95,6.2,West,10.4,-,N/A,,Scattered Clouds,260,2013-06-24 08:50:00
11:20 AM,77.0,62.6,61,29.95,6.2,West,11.5,-,N/A,,Scattered Clouds,260,2013-06-24 09:20:00
11:50 AM,75.2,60.8,61,29.95,6.2,West,11.5,-,N/A,,Scattered Clouds,270,2013-06-24 09:50:00
12:20 PM,75.2,60.8,61,29.95,6.2,West,15.0,-,N/A,,Scattered Clouds,270,2013-06-24 10:20:00
12:50 PM,77.0,59.0,54,29.95,6.2,West,15.0,-,N/A,,Scattered Clouds,260,2013-06-24 10:50:00
1:20 PM,75.2,57.2,53,29.95,6.2,West,15.0,26.5,N/A,,Scattered Clouds,270,2013-06-24 11:20:00
1:50 PM,77.0,57.2,50,29.95,6.2,West,17.3,-,N/A,,Partly Cloudy,260,2013-06-24 11:50:00
2:20 PM,77.0,57.2,50,29.95,6.2,West,16.1,-,N/A,,Partly Cloudy,280,2013-06-24 12:20:00
2:50 PM,75.2,57.2,53,29.95,6.2,West,17.3,-,N/A,,Partly Cloudy,260,2013-06-24 12:50:00
3:20 PM,75.2,55.4,50,29.95,6.2,West,16.1,-,N/A,,Scattered Clouds,270,2013-06-24 13:20:00
3:50 PM,73.4,57.2,57,29.95,6.2,West,17.3,-,N/A,,Mostly Cloudy,270,2013-06-24 13:50:00
4:20 PM,73.4,55.4,53,29.95,6.2,West,15.0,-,N/A,,Mostly Cloudy,260,2013-06-24 14:20:00
4:50 PM,75.2,55.4,50,29.95,6.2,West,15.0,-,N/A,,Mostly Cloudy,260,2013-06-24 14:50:00
5:20 PM,73.4,55.4,53,29.95,6.2,West,13.8,-,N/A,,Mostly Cloudy,260,2013-06-24 15:20:00
5:50 PM,73.4,57.2,57,29.95,6.2,WSW,16.1,-,N/A,,Mostly Cloudy,250,2013-06-24 15:50:00
6:20 PM,73.4,55.4,53,29.95,6.2,WSW,15.0,-,N/A,,Scattered Clouds,250,2013-06-24 16:20:00
6:50 PM,71.6,57.2,60,29.95,6.2,West,13.8,-,N/A,,Scattered Clouds,260,2013-06-24 16:50:00
7:20 PM,71.6,57.2,60,29.95,6.2,West,12.7,-,N/A,,Scattered Clouds,260,2013-06-24 17:20:00
7:50 PM,69.8,57.2,64,29.95,6.2,WSW,13.8,-,N/A,,Scattered Clouds,250,2013-06-24 17:50:00
8:20 PM,69.8,57.2,64,29.95,6.2,West,12.7,-,N/A,,Partly Cloudy,260,2013-06-24 18:20:00
8:50 PM,69.8,57.2,64,29.95,-9999.0,WSW,12.7,-,N/A,,Clear,240,2013-06-24 18:50:00
9:20 PM,69.8,57.2,64,29.95,-9999.0,WSW,9.2,-,N/A,,Clear,250,2013-06-24 19:20:00
9:50 PM,68.0,57.2,68,29.98,-9999.0,West,6.9,-,N/A,,Clear,260,2013-06-24 19:50:00
10:20 PM,68.0,59.0,73,29.98,-9999.0,WSW,9.2,-,N/A,,Clear,250,2013-06-24 20:20:00
10:50 PM,68.0,59.0,73,29.98,-9999.0,WSW,8.1,-,N/A,,Clear,250,2013-06-24 20:50:00
11:20 PM,68.0,59.0,73,29.98,-9999.0,WSW,8.1,-,N/A,,Clear,240,2013-06-24 21:20:00
11:50 PM,66.2,59.0,78,29.98,6.2,WSW,5.8,-,N/A,,Partly Cloudy,240,2013-06-24 21:50:00